»·PEaware :: N8735K KPSP-KSNA

N8735K :: KPSP-KSNA

FLIGHT INFORMATION

Flight Status: Arrived
Operator: Privately registered:
United States
More flights under this callsign
Pilot: Jeff K. (12978)
Aircraft: BEECH AIRCRAFT BARON
(BE58)
More flights by this aircraft type
Origin: KPSP Palm Springs Intl
United States
Destination: KSNA John Wayne-Orange Co
United States
More flights between these airports :: More routes between these airports
Route: +
File this flight plan on PilotEdge
Remarks:
Altitude:
(Current/Filed)
3,500ft
Speed:
(Current/Filed)
0kts
Departed: 28-Oct-17 07:15 PM
Arrived: 28-Oct-17 07:48 PM
Distance/Time
Traveled:
69nm/0:33
Distance/Time
To Go:
Arrived

Flight Plot

Page will automatically refresh every two minutes.


Map Options




Map Legend


Flown Route
Filed Route
Departure Airport
Arrival Airport
Navaid (VOR, NDB)
Fix

Horizontal Profiles

Position Reports

Time Latitude Longitude Heading Altitude Ground
Speed
28-Oct-17 19:16 33.822427 -116.497046 334 392ft 0kts
28-Oct-17 19:17 33.822427 -116.497046 334 392ft 0kts
28-Oct-17 19:18 33.824697 -116.499191 298 399ft 14kts
28-Oct-17 19:19 33.824620 -116.499543 215 399ft 0kts
28-Oct-17 19:20 33.831736 -116.506545 324 540ft 110kts
28-Oct-17 19:21 33.859526 -116.530066 324 1999ft 127kts
28-Oct-17 19:22 33.881792 -116.561769 286 3305ft 126kts
28-Oct-17 19:23 33.888600 -116.604285 277 4439ft 133kts
28-Oct-17 19:24 33.891412 -116.647608 272 5658ft 129kts
28-Oct-17 19:25 33.891259 -116.690339 253 6700ft 131kts
28-Oct-17 19:26 33.880071 -116.732626 241 7670ft 135kts
28-Oct-17 19:27 33.857167 -116.768486 224 8515ft 143kts
28-Oct-17 19:28 33.824674 -116.806172 224 8519ft 174kts
28-Oct-17 19:29 33.786928 -116.845071 222 8497ft 178kts
28-Oct-17 19:30 33.754287 -116.889331 228 8500ft 177kts
28-Oct-17 19:31 33.721919 -116.934001 228 8500ft 177kts
28-Oct-17 19:32 33.688991 -116.978088 227 8500ft 177kts
28-Oct-17 19:33 33.655938 -117.022104 227 8500ft 177kts
28-Oct-17 19:34 33.623391 -117.066862 232 8500ft 177kts
28-Oct-17 19:35 33.596232 -117.115655 254 8501ft 177kts
28-Oct-17 19:36 33.584953 -117.173181 256 8500ft 177kts
28-Oct-17 19:37 33.573844 -117.230783 257 8500ft 177kts
28-Oct-17 19:38 33.562724 -117.288490 257 8500ft 177kts
28-Oct-17 19:39 33.560013 -117.347403 269 8500ft 177kts
28-Oct-17 19:40 33.559152 -117.406749 269 8500ft 177kts
28-Oct-17 19:41 33.559180 -117.466231 271 8275ft 180kts
28-Oct-17 19:42 33.559897 -117.515842 271 7689ft 177kts
28-Oct-17 19:43 33.560971 -117.585409 271 6561ft 178kts
28-Oct-17 19:44 33.561760 -117.638767 271 5775ft 154kts
28-Oct-17 19:45 33.564975 -117.687134 279 4713ft 144kts
28-Oct-17 19:46 33.573548 -117.721556 285 3768ft 126kts
28-Oct-17 19:47 33.587452 -117.767836 291 3100ft 127kts
28-Oct-17 19:48 33.604167 -117.795927 319 2893ft 129kts
28-Oct-17 19:49 33.630511 -117.824718 317 2180ft 128kts
28-Oct-17 19:50 33.662096 -117.850952 16 1384ft 127kts
28-Oct-17 19:51 33.686370 -117.835115 350 1034ft 108kts
28-Oct-17 19:52 33.687000 -117.859814 208 281ft 103kts
28-Oct-17 19:53 33.673883 -117.867477 115 57ft 0kts
28-Oct-17 19:54 33.673883 -117.867477 115 57ft 0kts
28-Oct-17 19:55 33.670413 -117.869619 221 57ft 16kts
28-Oct-17 19:56 33.667760 -117.871422 9 57ft 0kts
28-Oct-17 19:57 33.667760 -117.871422 9 57ft 0kts
28-Oct-17 19:58 33.667760 -117.871422 9 57ft 0kts
28-Oct-17 19:59 33.667760 -117.871422 9 57ft 0kts
28-Oct-17 20:00 33.667760 -117.871422 9 57ft 0kts
28-Oct-17 20:01 33.667760 -117.871422 9 57ft 0kts
28-Oct-17 20:02 33.667760 -117.871422 9 57ft 0kts
28-Oct-17 20:03 33.667760 -117.871422 9 57ft 0kts
28-Oct-17 20:04 33.667760 -117.871422 9 57ft 0kts
28-Oct-17 20:05 33.667760 -117.871422 9 57ft 0kts
28-Oct-17 20:06 33.667760 -117.871422 9 57ft 0kts
28-Oct-17 20:07 33.667760 -117.871422 9 57ft 0kts

Navigation Log

Ident Type
Flight plan parsing failed, navigation log unavailable